createdAt,value
2018-04-29T00:02:22.474Z,9.40
2018-04-29T00:04:50.007Z,9.20
2018-04-29T00:07:18.308Z,8.37
2018-04-29T00:09:45.851Z,7.93
2018-04-29T00:12:13.392Z,8.40
2018-04-29T00:14:40.940Z,8.30
2018-04-29T00:17:08.485Z,8.10
2018-04-29T00:19:36.061Z,8.20
2018-04-29T00:22:03.586Z,8.63
2018-04-29T00:24:31.158Z,8.73
2018-04-29T00:26:58.677Z,7.60
2018-04-29T00:29:26.218Z,7.97
2018-04-29T00:31:53.863Z,9.53
2018-04-29T00:34:21.442Z,8.60
2018-04-29T00:36:49.018Z,8.37
2018-04-29T00:39:16.546Z,8.90
2018-04-29T00:41:44.863Z,8.50
2018-04-29T00:44:12.380Z,9.73
2018-04-29T00:46:39.928Z,8.70
2018-04-29T00:49:07.459Z,8.93
2018-04-29T00:51:46.991Z,9.73
2018-04-29T00:54:14.507Z,8.60
2018-04-29T00:56:42.822Z,9.77
2018-04-29T00:59:10.410Z,10.53
2018-04-29T01:01:37.912Z,9.80
2018-04-29T01:04:05.448Z,9.60
2018-04-29T01:06:33.084Z,9.47
2018-04-29T01:09:00.611Z,8.97
2018-04-29T01:11:28.183Z,9.67
2018-04-29T01:13:55.704Z,9.37
2018-04-29T01:16:23.246Z,9.83
2018-04-29T01:18:50.766Z,9.60
2018-04-29T01:21:19.074Z,9.20
2018-04-29T01:23:46.598Z,8.17
2018-04-29T01:26:14.139Z,9.23
2018-04-29T01:28:41.650Z,9.97
2018-04-29T01:31:09.236Z,8.82
2018-04-29T01:33:36.783Z,8.90
2018-04-29T01:36:04.322Z,10.07
2018-04-29T01:38:31.838Z,10.23
2018-04-29T01:41:00.256Z,9.23
2018-04-29T01:43:27.796Z,10.20
2018-04-29T01:45:55.342Z,9.27
2018-04-29T01:48:23.003Z,11.07
2018-04-29T01:50:50.555Z,9.63
2018-04-29T01:53:18.108Z,9.33
2018-04-29T01:55:45.632Z,9.00
2018-04-29T01:58:13.171Z,8.60
2018-04-29T02:00:40.701Z,8.60
2018-04-29T02:03:08.250Z,9.37
2018-04-29T02:05:35.800Z,10.73
2018-04-29T02:08:03.362Z,9.83
2018-04-29T02:10:30.920Z,9.60
2018-04-29T02:12:58.501Z,9.57
2018-04-29T02:15:26.788Z,10.43
2018-04-29T02:17:54.331Z,9.40
2018-04-29T02:20:21.847Z,10.10
2018-04-29T02:22:50.175Z,10.13
2018-04-29T02:25:18.542Z,9.90
2018-04-29T02:27:46.086Z,10.30
2018-04-29T02:30:13.923Z,10.03
2018-04-29T02:32:41.467Z,10.27
2018-04-29T02:35:09.115Z,10.43
2018-04-29T02:37:36.712Z,9.37
2018-04-29T02:40:04.245Z,10.40
2018-04-29T02:42:32.562Z,10.17
2018-04-29T02:45:00.099Z,11.73
2018-04-29T02:47:27.655Z,11.52
2018-04-29T02:49:55.178Z,10.10
2018-04-29T02:52:22.833Z,10.80
2018-04-29T02:54:50.355Z,10.70
2018-04-29T02:57:17.911Z,10.53
2018-04-29T02:59:45.437Z,11.03
2018-04-29T03:02:13.025Z,10.37
2018-04-29T03:04:40.563Z,12.20
2018-04-29T03:07:08.092Z,11.87
2018-04-29T03:09:35.655Z,10.57
2018-04-29T03:12:03.191Z,10.67
2018-04-29T03:14:30.735Z,9.93
2018-04-29T03:16:58.268Z,10.13
2018-04-29T03:19:25.862Z,10.47
2018-04-29T03:21:54.175Z,10.07
2018-04-29T03:24:21.724Z,9.77
2018-04-29T03:26:49.249Z,10.80
2018-04-29T03:29:16.807Z,10.83
2018-04-29T03:31:44.361Z,10.47
2018-04-29T03:34:11.910Z,9.43
2018-04-29T03:36:39.435Z,11.07
2018-04-29T03:39:06.987Z,10.27
2018-04-29T03:41:34.510Z,11.00
2018-04-29T03:44:02.062Z,11.10
2018-04-29T03:46:29.591Z,11.60
2018-04-29T03:48:57.146Z,9.87
2018-04-29T03:51:24.819Z,10.33
2018-04-29T03:53:52.374Z,9.97
2018-04-29T03:56:21.314Z,8.95
2018-04-29T03:59:00.841Z,9.83
2018-04-29T04:01:40.299Z,9.27
2018-04-29T04:04:07.851Z,10.40
2018-04-29T04:06:35.477Z,10.90
2018-04-29T04:09:03.087Z,9.87
2018-04-29T04:11:31.382Z,10.90
2018-04-29T04:13:58.946Z,10.27
2018-04-29T04:16:26.475Z,10.20
2018-04-29T04:18:54.039Z,10.13
2018-04-29T04:21:21.592Z,10.27
2018-04-29T04:23:49.205Z,11.03
2018-04-29T04:26:17.448Z,10.80
2018-04-29T04:28:45.023Z,9.97
2018-04-29T04:31:12.547Z,10.60
2018-04-29T04:33:44.856Z,10.73
2018-04-29T04:36:13.882Z,9.87
2018-04-29T04:38:41.430Z,10.33
2018-04-29T04:41:08.952Z,10.60
2018-04-29T04:43:36.669Z,10.20
2018-04-29T04:46:04.954Z,10.23
2018-04-29T04:48:32.503Z,9.97
2018-04-29T04:51:00.092Z,10.00
2018-04-29T04:53:27.626Z,10.60
2018-04-29T04:55:55.166Z,10.70
2018-04-29T04:58:22.687Z,9.80
2018-04-29T05:00:50.234Z,10.57
2018-04-29T05:03:17.761Z,11.33
2018-04-29T05:05:46.094Z,10.70
2018-04-29T05:08:13.618Z,9.70
2018-04-29T05:10:41.176Z,10.13
2018-04-29T05:13:08.708Z,10.50
2018-04-29T05:15:36.279Z,9.60
2018-04-29T05:18:04.567Z,9.87
2018-04-29T05:20:32.148Z,10.60
2018-04-29T05:22:59.679Z,10.80
2018-04-29T05:25:27.273Z,10.70
2018-04-29T05:27:54.796Z,9.67
2018-04-29T05:30:23.247Z,9.25
2018-04-29T05:32:50.807Z,10.00
2018-04-29T05:35:18.370Z,9.47
2018-04-29T05:37:45.903Z,9.70
2018-04-29T05:40:13.835Z,9.60
2018-04-29T05:42:41.350Z,10.23
2018-04-29T05:45:08.928Z,10.23
2018-04-29T05:47:36.511Z,9.70
2018-04-29T05:50:04.057Z,10.20
2018-04-29T05:52:32.344Z,9.73
2018-04-29T05:54:59.893Z,11.10
2018-04-29T05:57:27.538Z,8.90
2018-04-29T05:59:55.077Z,10.07
2018-04-29T06:02:23.411Z,10.03
2018-04-29T06:04:51.735Z,10.20
2018-04-29T06:07:19.280Z,9.30
2018-04-29T06:09:46.828Z,9.30
2018-04-29T06:12:14.472Z,8.93
2018-04-29T06:14:41.996Z,10.00
2018-04-29T06:17:09.551Z,9.33
2018-04-29T06:19:37.108Z,9.30
2018-04-29T06:22:04.750Z,8.60
2018-04-29T06:24:32.266Z,9.40
2018-04-29T06:26:59.806Z,9.30
2018-04-29T06:29:27.653Z,8.27
2018-04-29T06:31:55.289Z,8.47
2018-04-29T06:34:23.716Z,7.60
2018-04-29T06:36:51.287Z,8.40
2018-04-29T06:39:18.816Z,7.40
2018-04-29T06:41:46.404Z,6.87
2018-04-29T06:44:13.945Z,7.80
2018-04-29T06:46:41.561Z,8.03
2018-04-29T06:49:09.880Z,7.73
2018-04-29T06:51:37.431Z,6.63
2018-04-29T06:54:04.956Z,6.90
2018-04-29T06:56:32.510Z,6.67
2018-04-29T06:59:00.037Z,7.30
2018-04-29T07:01:27.687Z,7.00
2018-04-29T07:03:55.219Z,6.00
2018-04-29T07:06:24.548Z,5.73
2018-04-29T07:08:52.066Z,5.97
2018-04-29T07:11:19.607Z,6.37
2018-04-29T07:13:47.142Z,6.07
2018-04-29T07:16:14.691Z,9.20
2018-04-29T07:18:42.236Z,6.20
2018-04-29T07:21:09.779Z,6.00
2018-04-29T07:23:37.308Z,4.70
2018-04-29T07:26:09.981Z,6.03
2018-04-29T07:28:37.528Z,4.83
2018-04-29T07:31:05.820Z,5.70
2018-04-29T07:33:33.388Z,5.47
2018-04-29T07:36:02.468Z,5.20
2018-04-29T07:38:30.103Z,5.33
2018-04-29T07:40:57.701Z,4.90
2018-04-29T07:43:25.543Z,4.50
2018-04-29T07:45:53.242Z,4.90
2018-04-29T07:48:20.791Z,4.33
2018-04-29T07:50:48.311Z,4.50
2018-04-29T07:53:15.854Z,4.70
2018-04-29T07:55:43.362Z,4.23
2018-04-29T07:58:11.683Z,4.63
2018-04-29T08:00:39.237Z,4.67
2018-04-29T08:03:06.781Z,4.20
2018-04-29T08:05:34.310Z,4.60
2018-04-29T08:08:01.958Z,3.87
2018-04-29T08:10:29.606Z,3.50
2018-04-29T08:12:57.195Z,3.83
2018-04-29T08:15:26.537Z,3.90
2018-04-29T08:17:54.796Z,3.50
2018-04-29T08:20:22.314Z,3.63
2018-04-29T08:22:49.875Z,4.00
2018-04-29T08:25:17.396Z,3.40
2018-04-29T08:27:44.992Z,4.17
2018-04-29T08:30:12.621Z,4.17
2018-04-29T08:32:40.571Z,3.67
2018-04-29T08:35:08.107Z,3.30
2018-04-29T08:37:35.899Z,4.67
2018-04-29T08:40:03.432Z,3.60
2018-04-29T08:42:32.531Z,3.70
2018-04-29T08:45:01.572Z,3.70
2018-04-29T08:47:29.128Z,3.37
2018-04-29T08:49:56.676Z,3.83
2018-04-29T08:52:24.237Z,4.57
2018-04-29T08:54:51.870Z,3.67
2018-04-29T08:57:19.419Z,4.23
2018-04-29T08:59:46.927Z,3.70
2018-04-29T09:02:14.589Z,3.30
2018-04-29T09:04:42.107Z,4.00
2018-04-29T09:07:09.651Z,4.07
2018-04-29T09:09:37.174Z,3.80
2018-04-29T09:12:05.491Z,3.97
2018-04-29T09:14:33.011Z,4.10
2018-04-29T09:17:00.531Z,4.60
2018-04-29T09:19:28.835Z,4.73
2018-04-29T09:21:56.363Z,11.00
2018-04-29T09:24:23.933Z,5.30
2018-04-29T09:26:51.456Z,4.60
2018-04-29T09:29:19.044Z,4.90
2018-04-29T09:31:46.571Z,4.60
2018-04-29T09:34:14.118Z,4.00
2018-04-29T09:36:41.640Z,6.43
2018-04-29T09:39:09.177Z,5.97
2018-04-29T09:41:36.706Z,6.00
2018-04-29T09:44:04.257Z,10.33
2018-04-29T09:46:31.784Z,6.20
2018-04-29T09:48:59.333Z,4.30
2018-04-29T09:51:27.825Z,5.77
2018-04-29T09:53:55.580Z,4.67
2018-04-29T09:56:23.107Z,4.40
2018-04-29T09:58:50.689Z,4.87
2018-04-29T10:01:18.232Z,4.80
2018-04-29T10:03:47.571Z,4.33
2018-04-29T10:06:15.091Z,5.23
2018-04-29T10:08:43.395Z,4.60
2018-04-29T10:11:10.932Z,4.50
2018-04-29T10:13:38.478Z,3.50
2018-04-29T10:16:05.994Z,4.00
2018-04-29T10:18:34.307Z,3.37
2018-04-29T10:21:01.900Z,4.90
2018-04-29T10:23:30.224Z,4.37
2018-04-29T10:25:57.804Z,5.90
2018-04-29T10:28:26.217Z,3.93
2018-04-29T10:30:53.735Z,3.20
2018-04-29T10:33:21.335Z,4.07
2018-04-29T10:35:48.851Z,4.17
2018-04-29T10:38:16.395Z,3.87
2018-04-29T10:40:43.929Z,4.30
2018-04-29T10:43:11.460Z,4.23
2018-04-29T10:45:39.002Z,3.53
2018-04-29T10:48:06.539Z,3.33
2018-04-29T10:50:34.074Z,3.13
2018-04-29T10:53:03.136Z,4.60
2018-04-29T10:55:31.151Z,5.30
2018-04-29T10:57:58.676Z,3.80
2018-04-29T11:00:26.242Z,3.57
2018-04-29T11:02:54.156Z,3.93
2018-04-29T11:05:21.901Z,3.67
2018-04-29T11:07:49.892Z,3.93
2018-04-29T11:10:17.434Z,4.10
2018-04-29T11:12:44.955Z,3.90
2018-04-29T11:15:13.321Z,3.60
2018-04-29T11:17:40.844Z,3.83
2018-04-29T11:20:09.161Z,3.87
2018-04-29T11:22:36.674Z,3.87
2018-04-29T11:25:04.494Z,4.00
2018-04-29T11:27:33.276Z,3.50
2018-04-29T11:30:01.620Z,3.70
2018-04-29T11:32:30.711Z,4.00
2018-04-29T11:34:59.132Z,4.10
2018-04-29T11:37:26.701Z,5.30
2018-04-29T11:39:55.767Z,3.93
2018-04-29T11:42:23.343Z,5.00
2018-04-29T11:44:51.670Z,4.03
2018-04-29T11:47:19.186Z,8.73
2018-04-29T11:49:46.757Z,5.07
2018-04-29T11:52:14.368Z,4.23
2018-04-29T11:54:42.159Z,4.40
2018-04-29T11:57:09.718Z,4.30
2018-04-29T11:59:37.281Z,3.93
2018-04-29T12:02:05.566Z,5.03
2018-04-29T12:04:33.424Z,5.00
2018-04-29T12:07:01.143Z,4.30
2018-04-29T12:09:29.535Z,3.40
2018-04-29T12:11:57.082Z,5.37
2018-04-29T12:14:24.654Z,5.77
2018-04-29T12:16:52.231Z,3.93
2018-04-29T12:19:19.883Z,4.90
2018-04-29T12:21:47.491Z,5.23
2018-04-29T12:24:15.011Z,5.37
2018-04-29T12:26:42.581Z,4.00
2018-04-29T12:29:10.112Z,4.17
2018-04-29T12:31:37.752Z,7.03
2018-04-29T12:34:05.276Z,5.30
2018-04-29T12:36:32.865Z,4.60
2018-04-29T12:39:00.403Z,4.70
2018-04-29T12:41:28.073Z,4.37
2018-04-29T12:43:55.625Z,3.77
2018-04-29T12:46:23.183Z,4.20
2018-04-29T12:48:50.890Z,3.80
2018-04-29T12:51:18.428Z,4.63
2018-04-29T12:53:46.087Z,4.72
2018-04-29T12:56:13.715Z,6.50
2018-04-29T12:58:41.249Z,4.72
2018-04-29T13:01:08.858Z,5.90
2018-04-29T13:03:37.249Z,3.30
2018-04-29T13:06:05.342Z,3.90
2018-04-29T13:08:33.507Z,4.10
2018-04-29T13:11:01.103Z,6.07
2018-04-29T13:13:29.460Z,4.67
2018-04-29T13:15:58.195Z,4.30
2018-04-29T13:18:25.729Z,4.83
2018-04-29T13:20:53.283Z,3.93
2018-04-29T13:23:20.819Z,5.57
2018-04-29T13:25:48.512Z,4.40
2018-04-29T13:28:16.112Z,4.33
2018-04-29T13:30:43.680Z,3.80
2018-04-29T13:33:11.407Z,4.60
2018-04-29T13:35:39.027Z,5.00
2018-04-29T13:38:06.527Z,6.03
2018-04-29T13:40:34.127Z,5.90
2018-04-29T13:43:01.946Z,5.50
2018-04-29T13:45:29.777Z,4.50
2018-04-29T13:47:57.407Z,4.87
2018-04-29T13:50:27.348Z,4.30
2018-04-29T13:52:55.236Z,6.18
2018-04-29T13:55:22.780Z,5.97
2018-04-29T13:57:50.347Z,5.70
2018-04-29T14:00:17.883Z,8.00
2018-04-29T14:02:45.472Z,12.00
2018-04-29T14:05:13.001Z,5.73
2018-04-29T14:07:41.366Z,6.90
2018-04-29T14:10:09.887Z,4.93
2018-04-29T14:12:37.686Z,5.30
2018-04-29T14:15:05.773Z,3.93
2018-04-29T14:17:33.622Z,5.05
2018-04-29T14:20:01.203Z,4.70
2018-04-29T14:22:28.791Z,5.90
2018-04-29T14:24:56.332Z,5.70
2018-04-29T14:27:24.659Z,4.80
2018-04-29T14:29:52.959Z,5.10
2018-04-29T14:32:20.685Z,4.63
2018-04-29T14:34:48.311Z,5.70
2018-04-29T14:37:15.943Z,6.33
2018-04-29T14:39:43.509Z,5.87
2018-04-29T14:42:11.106Z,4.83
2018-04-29T14:44:38.712Z,5.30
2018-04-29T14:47:07.062Z,7.83
2018-04-29T14:49:35.000Z,8.90
2018-04-29T14:52:02.566Z,8.40
2018-04-29T14:54:30.439Z,6.20
2018-04-29T14:56:57.983Z,4.17
2018-04-29T14:59:26.292Z,5.30
2018-04-29T15:01:54.187Z,5.00
2018-04-29T15:04:21.755Z,5.33
2018-04-29T15:06:49.493Z,6.90
2018-04-29T15:09:17.794Z,5.90
2018-04-29T15:11:45.391Z,7.43
2018-04-29T15:14:13.088Z,6.80
2018-04-29T15:16:40.978Z,8.77
2018-04-29T15:19:08.547Z,4.17
2018-04-29T15:21:37.211Z,7.70
2018-04-29T15:24:05.979Z,5.10
2018-04-29T15:26:35.232Z,4.90
2018-04-29T15:29:02.809Z,8.43
2018-04-29T15:31:30.658Z,6.33
2018-04-29T15:33:58.297Z,6.27
2018-04-29T15:36:25.834Z,5.10
2018-04-29T15:38:53.480Z,5.37
2018-04-29T15:41:21.016Z,6.80
2018-04-29T15:43:48.595Z,5.10
2018-04-29T15:46:16.160Z,5.23
2018-04-29T15:48:43.703Z,6.80
2018-04-29T15:51:12.213Z,7.20
2018-04-29T15:53:39.786Z,7.13
2018-04-29T15:56:08.129Z,6.67
2018-04-29T15:58:35.722Z,7.30
2018-04-29T16:01:03.243Z,5.43
2018-04-29T16:03:30.938Z,6.03
2018-04-29T16:05:59.119Z,8.80
2018-04-29T16:08:26.749Z,5.90
2018-04-29T16:10:54.776Z,6.00
2018-04-29T16:13:22.774Z,5.47
2018-04-29T16:15:50.617Z,4.23
2018-04-29T16:18:18.752Z,5.60
2018-04-29T16:20:46.357Z,7.10
2018-04-29T16:23:14.767Z,4.73
2018-04-29T16:25:42.411Z,4.67
2018-04-29T16:28:10.016Z,4.87
2018-04-29T16:30:37.879Z,7.10
2018-04-29T16:33:05.511Z,6.33
2018-04-29T16:35:33.877Z,8.70
2018-04-29T16:38:01.934Z,5.80
2018-04-29T16:40:29.452Z,8.00
2018-04-29T16:42:57.179Z,6.47
2018-04-29T16:45:25.026Z,6.53
2018-04-29T16:47:52.588Z,6.73
2018-04-29T16:50:20.655Z,4.60
2018-04-29T16:52:49.009Z,9.47
2018-04-29T16:55:16.554Z,7.37
2018-04-29T16:57:44.081Z,4.70
2018-04-29T17:00:11.622Z,4.77
2018-04-29T17:02:39.140Z,5.07
2018-04-29T17:05:07.492Z,5.60
2018-04-29T17:07:35.848Z,5.37
2018-04-29T17:10:04.227Z,7.50
2018-04-29T17:12:32.510Z,5.10
2018-04-29T17:15:00.082Z,4.60
2018-04-29T17:17:27.662Z,7.83
2018-04-29T17:19:56.010Z,5.37
2018-04-29T17:22:24.060Z,6.90
2018-04-29T17:24:51.745Z,8.40
2018-04-29T17:27:19.325Z,5.37
2018-04-29T17:29:46.866Z,5.10
2018-04-29T17:32:14.406Z,6.40
2018-04-29T17:34:42.381Z,9.30
2018-04-29T17:37:10.995Z,8.57
2018-04-29T17:39:38.606Z,7.07
2018-04-29T17:42:06.137Z,4.83
2018-04-29T17:44:33.706Z,7.43
2018-04-29T17:47:03.647Z,12.77
2018-04-29T17:49:31.215Z,6.43
2018-04-29T17:51:58.747Z,6.40
2018-04-29T17:54:26.451Z,8.60
2018-04-29T17:56:54.858Z,6.03
2018-04-29T17:59:22.394Z,7.70
2018-04-29T18:01:50.045Z,5.40
2018-04-29T18:04:17.591Z,6.33
2018-04-29T18:06:45.215Z,8.30
2018-04-29T18:09:14.921Z,9.23
2018-04-29T18:11:42.553Z,6.00
2018-04-29T18:14:10.108Z,7.20
2018-04-29T18:16:39.439Z,7.47
2018-04-29T18:19:07.006Z,6.10
2018-04-29T18:21:34.756Z,10.87
2018-04-29T18:24:02.294Z,17.00
2018-04-29T18:26:29.856Z,13.20
2018-04-29T18:28:57.380Z,18.50
2018-04-29T18:31:24.981Z,10.70
2018-04-29T18:33:52.514Z,14.00
2018-04-29T18:36:20.866Z,10.73
2018-04-29T18:38:48.468Z,14.23
2018-04-29T18:41:16.148Z,12.03
2018-04-29T18:43:45.198Z,10.33
2018-04-29T18:46:12.747Z,8.80
2018-04-29T18:48:40.289Z,14.47
2018-04-29T18:51:07.973Z,12.57
2018-04-29T18:53:35.475Z,11.20
2018-04-29T18:56:03.021Z,10.40
2018-04-29T18:58:30.671Z,10.00
2018-04-29T19:00:58.242Z,14.43
2018-04-29T19:03:26.151Z,11.63
2018-04-29T19:05:59.989Z,8.77
2018-04-29T19:08:27.568Z,10.30
2018-04-29T19:10:55.123Z,10.00
2018-04-29T19:13:22.692Z,11.07
2018-04-29T19:15:50.255Z,16.20
2018-04-29T19:18:17.774Z,15.27
2018-04-29T19:20:45.320Z,11.40
2018-04-29T19:23:12.867Z,12.20
2018-04-29T19:25:40.423Z,10.27
2018-04-29T19:28:07.964Z,11.40
2018-04-29T19:30:35.517Z,7.30
2018-04-29T19:33:03.790Z,11.03
2018-04-29T19:35:31.361Z,8.30
2018-04-29T19:37:59.646Z,6.87
2018-04-29T19:40:27.183Z,9.77
2018-04-29T19:42:54.763Z,7.43
2018-04-29T19:45:22.319Z,6.97
2018-04-29T19:47:49.885Z,8.00
2018-04-29T19:50:19.035Z,7.03
2018-04-29T19:52:46.612Z,7.00
2018-04-29T19:55:14.557Z,6.83
2018-04-29T19:57:42.356Z,11.80
2018-04-29T20:00:09.871Z,9.70
2018-04-29T20:02:37.451Z,10.03
2018-04-29T20:05:05.003Z,8.20
2018-04-29T20:07:32.555Z,8.07
2018-04-29T20:10:00.099Z,8.00
2018-04-29T20:12:27.664Z,6.93
2018-04-29T20:14:55.215Z,7.50
2018-04-29T20:17:22.772Z,7.60
2018-04-29T20:19:50.291Z,6.30
2018-04-29T20:22:17.999Z,7.23
2018-04-29T20:24:45.653Z,7.50
2018-04-29T20:27:13.190Z,5.97
2018-04-29T20:29:41.644Z,7.27
2018-04-29T20:32:09.203Z,7.03
2018-04-29T20:34:36.785Z,7.53
2018-04-29T20:37:04.355Z,6.53
2018-04-29T20:39:31.881Z,7.50
2018-04-29T20:41:59.428Z,9.10
2018-04-29T20:44:26.959Z,8.80
2018-04-29T20:46:54.504Z,6.67
2018-04-29T20:49:22.075Z,7.63
2018-04-29T20:51:49.808Z,6.40
2018-04-29T20:54:18.855Z,7.37
2018-04-29T20:56:46.830Z,7.90
2018-04-29T20:59:14.352Z,6.93
2018-04-29T21:01:42.169Z,7.03
2018-04-29T21:04:10.515Z,7.70
2018-04-29T21:06:38.855Z,6.80
2018-04-29T21:09:06.403Z,8.93
2018-04-29T21:11:33.914Z,6.83
2018-04-29T21:14:01.478Z,6.70
2018-04-29T21:16:28.999Z,12.23
2018-04-29T21:18:56.546Z,8.43
2018-04-29T21:21:24.103Z,9.40
2018-04-29T21:23:51.647Z,7.67
2018-04-29T21:26:19.180Z,7.17
2018-04-29T21:28:46.745Z,7.80
2018-04-29T21:31:14.264Z,7.00
2018-04-29T21:33:41.815Z,10.23
2018-04-29T21:36:09.392Z,9.50
2018-04-29T21:38:36.943Z,10.13
2018-04-29T21:41:04.569Z,8.80
2018-04-29T21:43:32.317Z,9.10
2018-04-29T21:45:59.872Z,8.83
2018-04-29T21:48:27.424Z,8.50
2018-04-29T21:50:54.954Z,9.67
2018-04-29T21:53:22.569Z,10.60
2018-04-29T21:55:50.100Z,8.10
2018-04-29T21:58:18.446Z,7.33
2018-04-29T22:00:46.720Z,8.63
2018-04-29T22:03:15.032Z,7.80
2018-04-29T22:05:42.551Z,8.40
2018-04-29T22:08:10.097Z,7.80
2018-04-29T22:10:37.610Z,7.87
2018-04-29T22:13:05.928Z,8.63
2018-04-29T22:15:33.475Z,8.57
2018-04-29T22:18:01.031Z,9.20
2018-04-29T22:20:28.591Z,9.53
2018-04-29T22:22:56.119Z,8.47
2018-04-29T22:25:23.666Z,10.33
2018-04-29T22:27:51.203Z,9.00
2018-04-29T22:30:18.759Z,9.47
2018-04-29T22:32:46.327Z,9.03
2018-04-29T22:35:14.652Z,9.00
2018-04-29T22:37:42.172Z,11.07
2018-04-29T22:40:09.720Z,12.80
2018-04-29T22:42:37.237Z,8.10
2018-04-29T22:45:04.783Z,9.60
2018-04-29T22:47:32.308Z,8.63
2018-04-29T22:50:00.626Z,11.07
2018-04-29T22:52:28.162Z,12.97
2018-04-29T22:54:55.715Z,8.50
2018-04-29T22:57:23.236Z,9.20
2018-04-29T22:59:50.787Z,9.17
2018-04-29T23:02:18.315Z,9.50
2018-04-29T23:04:45.864Z,9.63
2018-04-29T23:07:13.398Z,8.90
2018-04-29T23:09:40.956Z,8.37
2018-04-29T23:12:08.532Z,8.67
2018-04-29T23:14:36.090Z,8.70
2018-04-29T23:17:03.611Z,8.33
2018-04-29T23:19:31.180Z,9.50
2018-04-29T23:21:58.714Z,9.10
2018-04-29T23:24:26.322Z,8.73
2018-04-29T23:26:53.847Z,9.33
2018-04-29T23:29:22.171Z,9.17
2018-04-29T23:31:49.812Z,9.40
2018-04-29T23:34:17.410Z,9.40
2018-04-29T23:36:45.867Z,9.43
2018-04-29T23:39:14.193Z,8.90
2018-04-29T23:41:41.712Z,9.30
2018-04-29T23:44:09.259Z,8.80
2018-04-29T23:46:36.807Z,8.77
2018-04-29T23:49:04.403Z,9.87
2018-04-29T23:51:31.904Z,8.73
2018-04-29T23:53:59.423Z,8.43
2018-04-29T23:56:26.969Z,9.37
2018-04-29T23:58:54.486Z,9.90
